createdAt,value
2023-12-03T00:02:17.327Z,1.00
2023-12-03T00:04:48.561Z,1.00
2023-12-03T00:07:19.402Z,1.00
2023-12-03T00:09:49.021Z,1.00
2023-12-03T00:12:18.388Z,1.00
2023-12-03T00:14:47.609Z,1.00
2023-12-03T00:17:17.068Z,1.00
2023-12-03T00:19:46.257Z,1.00
2023-12-03T00:22:15.474Z,1.00
2023-12-03T00:24:46.071Z,1.00
2023-12-03T00:27:15.572Z,1.00
2023-12-03T00:29:44.896Z,1.00
2023-12-03T00:32:14.086Z,1.00
2023-12-03T00:34:43.174Z,1.00
2023-12-03T00:37:13.122Z,1.00
2023-12-03T00:39:42.225Z,1.00
2023-12-03T00:42:12.639Z,1.00
2023-12-03T00:44:41.689Z,1.00
2023-12-03T00:47:11.116Z,1.00
2023-12-03T00:49:42.147Z,1.00
2023-12-03T00:52:12.988Z,1.00
2023-12-03T00:54:42.478Z,1.00
2023-12-03T00:57:13.015Z,1.00
2023-12-03T00:59:42.153Z,1.00
2023-12-03T01:02:11.366Z,1.00
2023-12-03T01:04:40.560Z,1.00
2023-12-03T01:07:10.722Z,1.00
2023-12-03T01:09:40.087Z,1.00
2023-12-03T01:12:09.586Z,1.00
2023-12-03T01:14:40.744Z,1.00
2023-12-03T01:17:10.093Z,1.00
2023-12-03T01:19:39.506Z,1.00
2023-12-03T01:22:08.850Z,1.00
2023-12-03T01:24:38.006Z,1.00
2023-12-03T01:27:07.820Z,1.00
2023-12-03T01:29:37.107Z,1.00
2023-12-03T01:32:08.673Z,1.00
2023-12-03T01:34:38.088Z,1.00
2023-12-03T01:37:07.660Z,1.00
2023-12-03T01:39:36.791Z,1.00
2023-12-03T01:42:06.400Z,1.00
2023-12-03T01:44:35.802Z,1.00
2023-12-03T01:47:07.571Z,1.00
2023-12-03T01:49:37.050Z,1.00
2023-12-03T01:52:06.610Z,1.00
2023-12-03T01:54:37.637Z,1.00
2023-12-03T01:57:06.805Z,1.00
2023-12-03T01:59:36.290Z,1.00
2023-12-03T02:02:07.277Z,1.00
2023-12-03T02:04:36.339Z,1.00
2023-12-03T02:07:06.122Z,1.00
2023-12-03T02:09:35.587Z,1.00
2023-12-03T02:12:05.127Z,1.00
2023-12-03T02:14:34.732Z,1.00
2023-12-03T02:17:03.909Z,1.00
2023-12-03T02:19:34.427Z,1.00
2023-12-03T02:22:03.781Z,1.00
2023-12-03T02:24:35.893Z,1.00
2023-12-03T02:27:06.023Z,1.00
2023-12-03T02:29:35.133Z,1.00
2023-12-03T02:32:04.323Z,1.00
2023-12-03T02:34:33.505Z,1.00
2023-12-03T02:37:02.533Z,1.00
2023-12-03T02:39:31.661Z,1.00
2023-12-03T02:42:02.192Z,1.00
2023-12-03T02:44:31.351Z,1.00
2023-12-03T02:47:00.479Z,1.00
2023-12-03T02:49:29.586Z,1.00
2023-12-03T02:51:58.826Z,1.00
2023-12-03T02:54:27.854Z,1.00
2023-12-03T02:56:57.522Z,1.00
2023-12-03T02:59:28.493Z,1.00
2023-12-03T03:01:58.415Z,1.00
2023-12-03T03:04:27.555Z,99.90
2023-12-03T03:06:56.776Z,99.90
2023-12-03T03:09:25.878Z,99.90
2023-12-03T03:11:58.631Z,99.90
2023-12-03T03:14:29.079Z,99.90
2023-12-03T03:16:58.609Z,99.90
2023-12-03T03:19:27.773Z,99.90
2023-12-03T03:21:56.799Z,99.90
2023-12-03T03:24:25.962Z,99.90
2023-12-03T03:26:55.090Z,99.90
2023-12-03T03:29:24.082Z,99.90
2023-12-03T03:31:54.789Z,99.90
2023-12-03T03:34:24.436Z,99.90
2023-12-03T03:36:53.643Z,99.90
2023-12-03T03:39:22.614Z,99.90
2023-12-03T03:41:51.616Z,99.90
2023-12-03T03:44:20.946Z,99.90
2023-12-03T03:46:49.977Z,99.90
2023-12-03T03:49:20.811Z,99.90
2023-12-03T03:51:49.905Z,99.90
2023-12-03T03:54:19.365Z,99.90
2023-12-03T03:56:49.207Z,99.90
2023-12-03T03:59:18.333Z,99.90
2023-12-03T04:01:48.185Z,99.90
2023-12-03T04:04:18.403Z,99.90
2023-12-03T04:06:49.162Z,99.90
2023-12-03T04:09:18.462Z,99.90
2023-12-03T04:11:49.281Z,99.90
2023-12-03T04:14:20.016Z,99.90
2023-12-03T04:16:49.487Z,99.90
2023-12-03T04:19:18.657Z,99.90
2023-12-03T04:21:50.650Z,99.90
2023-12-03T04:24:19.707Z,99.90
2023-12-03T04:26:48.964Z,99.90
2023-12-03T04:29:17.989Z,99.90
2023-12-03T04:31:47.920Z,99.90
2023-12-03T04:34:17.449Z,99.90
2023-12-03T04:36:47.355Z,99.90
2023-12-03T04:39:18.571Z,99.90
2023-12-03T04:41:47.705Z,99.90
2023-12-03T04:44:16.799Z,99.90
2023-12-03T04:46:46.953Z,99.90
2023-12-03T04:49:16.302Z,99.90
2023-12-03T04:51:45.396Z,99.90
2023-12-03T04:54:14.642Z,99.90
2023-12-03T04:56:45.286Z,99.90
2023-12-03T04:59:14.659Z,99.90
2023-12-03T05:01:44.127Z,99.90
2023-12-03T05:04:13.417Z,99.90
2023-12-03T05:06:43.286Z,99.90
2023-12-03T05:09:13.218Z,99.90
2023-12-03T05:11:42.720Z,99.90
2023-12-03T05:14:13.359Z,99.90
2023-12-03T05:16:42.481Z,99.90
2023-12-03T05:19:11.699Z,99.90
2023-12-03T05:21:41.468Z,99.90
2023-12-03T05:24:11.216Z,99.90
2023-12-03T05:26:41.029Z,99.90
2023-12-03T05:29:10.343Z,99.90
2023-12-03T05:31:46.945Z,99.90
2023-12-03T05:34:16.906Z,99.90
2023-12-03T05:36:46.044Z,99.90
2023-12-03T05:39:15.407Z,99.90
2023-12-03T05:41:44.491Z,99.90
2023-12-03T05:44:13.488Z,99.90
2023-12-03T05:46:45.361Z,99.90
2023-12-03T05:49:14.585Z,99.90
2023-12-03T05:51:46.194Z,99.90
2023-12-03T05:54:15.552Z,99.90
2023-12-03T05:56:47.571Z,99.90
2023-12-03T05:59:18.295Z,99.90
2023-12-03T06:01:48.914Z,99.90
2023-12-03T06:04:18.226Z,99.90
2023-12-03T06:06:47.662Z,99.90
2023-12-03T06:09:17.043Z,99.90
2023-12-03T06:11:46.283Z,99.90
2023-12-03T06:14:15.319Z,99.90
2023-12-03T06:16:44.432Z,99.90
2023-12-03T06:19:15.768Z,99.90
2023-12-03T06:21:44.984Z,99.90
2023-12-03T06:24:14.065Z,1.00
2023-12-03T06:26:43.276Z,1.00
2023-12-03T06:29:12.565Z,99.90
2023-12-03T06:31:42.144Z,1.00
2023-12-03T06:34:12.520Z,1.00
2023-12-03T06:36:43.088Z,99.90
2023-12-03T06:39:12.189Z,1.00
2023-12-03T06:41:42.400Z,1.00
2023-12-03T06:44:11.412Z,1.00
2023-12-03T06:46:43.633Z,1.00
2023-12-03T06:49:13.243Z,1.00
2023-12-03T06:51:43.742Z,1.00
2023-12-03T06:54:13.495Z,1.00
2023-12-03T06:56:42.575Z,1.00
2023-12-03T06:59:11.563Z,1.00
2023-12-03T07:01:40.703Z,99.90
2023-12-03T07:04:10.147Z,1.00
2023-12-03T07:06:39.229Z,1.00
2023-12-03T07:09:36.602Z,99.90
2023-12-03T07:12:02.329Z,99.90
2023-12-03T07:14:31.614Z,99.90
2023-12-03T07:17:00.741Z,99.90
2023-12-03T07:19:29.819Z,99.90
2023-12-03T07:21:58.935Z,99.90
2023-12-03T07:24:29.422Z,99.90
2023-12-03T07:26:58.383Z,99.90
2023-12-03T07:29:27.348Z,99.90
2023-12-03T07:31:56.311Z,99.90
2023-12-03T07:34:27.417Z,99.90
2023-12-03T07:36:56.993Z,99.90
2023-12-03T07:39:27.022Z,99.90
2023-12-03T07:41:57.724Z,99.90
2023-12-03T07:44:26.726Z,99.90
2023-12-03T07:46:56.383Z,99.90
2023-12-03T07:49:25.751Z,99.90
2023-12-03T07:51:55.201Z,99.90
2023-12-03T07:54:24.490Z,99.90
2023-12-03T07:56:53.693Z,99.90
2023-12-03T07:59:24.367Z,99.90
2023-12-03T08:01:53.952Z,99.90
2023-12-03T08:04:22.999Z,99.90
2023-12-03T08:06:52.510Z,99.90
2023-12-03T08:09:21.900Z,99.90
2023-12-03T08:11:51.283Z,99.90
2023-12-03T08:14:20.486Z,99.90
2023-12-03T08:16:51.132Z,99.90
2023-12-03T08:19:20.474Z,99.90
2023-12-03T08:21:49.883Z,99.90
2023-12-03T08:24:19.150Z,99.90
2023-12-03T08:26:48.410Z,99.90
2023-12-03T08:29:17.773Z,99.90
2023-12-03T08:31:47.187Z,99.90
2023-12-03T08:34:19.175Z,99.90
2023-12-03T08:36:48.595Z,65.20
2023-12-03T08:39:17.944Z,7.70
2023-12-03T08:41:47.281Z,1.00
2023-12-03T08:44:16.504Z,99.90
2023-12-03T08:46:45.992Z,99.90
2023-12-03T08:49:17.499Z,99.90
2023-12-03T08:51:46.826Z,99.90
2023-12-03T08:54:15.138Z,1.00
2023-12-03T08:56:48.437Z,34.30
2023-12-03T08:59:18.446Z,1.00
2023-12-03T09:01:47.881Z,99.90
2023-12-03T09:04:18.505Z,1.00
2023-12-03T09:06:47.687Z,1.00
2023-12-03T09:09:17.227Z,99.90
2023-12-03T09:11:46.420Z,1.00
2023-12-03T09:14:15.918Z,99.90
2023-12-03T09:16:45.331Z,99.90
2023-12-03T09:19:14.809Z,54.20
2023-12-03T09:21:45.494Z,99.90
2023-12-03T09:24:15.217Z,1.00
2023-12-03T09:26:46.007Z,1.00
2023-12-03T09:29:16.107Z,99.90
2023-12-03T09:31:45.458Z,99.90
2023-12-03T09:34:14.592Z,99.90
2023-12-03T09:36:45.453Z,99.90
2023-12-03T09:39:13.759Z,1.00
2023-12-03T09:41:49.543Z,1.00
2023-12-03T09:44:23.223Z,1.00
2023-12-03T09:46:53.347Z,1.00
2023-12-03T09:49:25.314Z,1.00
2023-12-03T09:51:57.003Z,1.00
2023-12-03T09:54:26.715Z,1.00
2023-12-03T09:57:02.241Z,99.90
2023-12-03T09:59:34.129Z,99.90
2023-12-03T10:02:04.842Z,1.00
2023-12-03T10:04:34.185Z,1.00
2023-12-03T10:07:05.221Z,1.00
2023-12-03T10:09:35.246Z,1.00
2023-12-03T10:12:07.997Z,1.00
2023-12-03T10:14:38.616Z,22.90
2023-12-03T10:17:08.179Z,1.00
2023-12-03T10:19:37.775Z,24.30
2023-12-03T10:22:08.833Z,1.00
2023-12-03T10:24:49.544Z,1.00
2023-12-03T10:27:19.122Z,1.00
2023-12-03T10:29:49.308Z,1.00
2023-12-03T10:32:19.609Z,99.90
2023-12-03T10:34:52.525Z,99.90
2023-12-03T10:37:23.785Z,99.90
2023-12-03T10:39:53.192Z,99.90
2023-12-03T10:42:22.341Z,99.90
2023-12-03T10:44:51.522Z,99.90
2023-12-03T10:47:21.456Z,99.90
2023-12-03T10:49:52.109Z,99.90
2023-12-03T10:52:23.398Z,99.90
2023-12-03T10:54:53.185Z,99.90
2023-12-03T10:57:22.708Z,99.90
2023-12-03T10:59:56.811Z,1.00
2023-12-03T11:02:29.882Z,1.00
2023-12-03T11:05:04.419Z,1.00
2023-12-03T11:07:36.206Z,1.00
2023-12-03T11:10:07.183Z,1.00
2023-12-03T11:12:36.615Z,66.80
2023-12-03T11:15:07.753Z,99.90
2023-12-03T11:17:42.291Z,99.90
2023-12-03T11:20:15.509Z,99.90
2023-12-03T11:23:01.297Z,69.50
2023-12-03T11:25:35.941Z,99.90
2023-12-03T11:28:05.741Z,58.50
2023-12-03T11:30:41.146Z,1.00
2023-12-03T11:33:12.793Z,1.00
2023-12-03T11:35:43.806Z,78.40
2023-12-03T11:38:31.998Z,1.60
2023-12-03T11:41:01.190Z,1.00
2023-12-03T11:43:31.933Z,99.90
2023-12-03T11:46:01.536Z,99.90
2023-12-03T11:48:32.165Z,99.90
2023-12-03T11:51:01.707Z,99.90
2023-12-03T11:53:40.604Z,99.90
2023-12-03T11:56:11.140Z,99.90
2023-12-03T11:58:40.467Z,99.90
2023-12-03T12:01:11.140Z,75.40
2023-12-03T12:03:40.643Z,1.00
2023-12-03T12:06:10.762Z,1.00
2023-12-03T12:08:41.662Z,69.20
2023-12-03T12:11:11.026Z,99.90
2023-12-03T12:13:40.493Z,88.80
2023-12-03T12:16:11.830Z,94.00
2023-12-03T12:18:41.291Z,92.40
2023-12-03T12:21:12.371Z,99.90
2023-12-03T12:23:46.524Z,99.90
2023-12-03T12:26:16.704Z,99.90
2023-12-03T12:28:46.196Z,99.90
2023-12-03T12:31:19.130Z,99.90
2023-12-03T12:33:49.221Z,99.90
2023-12-03T12:36:18.942Z,99.90
2023-12-03T12:38:50.423Z,99.90
2023-12-03T12:41:21.205Z,99.90
2023-12-03T12:43:57.716Z,99.90
2023-12-03T12:46:27.041Z,99.90
2023-12-03T12:49:15.509Z,99.90
2023-12-03T12:51:45.130Z,99.90
2023-12-03T12:54:17.499Z,99.90
2023-12-03T12:56:47.900Z,99.90
2023-12-03T12:59:19.954Z,99.90
2023-12-03T13:01:51.647Z,99.90
2023-12-03T13:04:24.813Z,99.90
2023-12-03T13:06:57.187Z,99.90
2023-12-03T13:09:31.895Z,99.90
2023-12-03T13:12:03.315Z,99.90
2023-12-03T13:14:37.258Z,1.00
2023-12-03T13:17:07.580Z,99.90
2023-12-03T13:19:38.638Z,99.90
2023-12-03T13:22:09.243Z,99.90
2023-12-03T13:24:42.546Z,99.90
2023-12-03T13:27:13.921Z,99.90
2023-12-03T13:29:44.387Z,99.90
2023-12-03T13:32:14.337Z,99.90
2023-12-03T13:34:44.083Z,99.90
2023-12-03T13:37:13.388Z,99.90
2023-12-03T13:39:44.135Z,99.90
2023-12-03T13:42:13.368Z,99.90
2023-12-03T13:44:42.575Z,99.90
2023-12-03T13:47:12.368Z,99.90
2023-12-03T13:49:43.078Z,26.50
2023-12-03T13:52:12.819Z,1.00
2023-12-03T13:54:43.867Z,1.00
2023-12-03T13:57:13.105Z,1.00
2023-12-03T13:59:43.226Z,1.00
2023-12-03T14:02:15.536Z,1.00
2023-12-03T14:04:48.114Z,1.00
2023-12-03T14:07:17.771Z,1.00
2023-12-03T14:09:48.445Z,1.00
2023-12-03T14:12:17.737Z,1.00
2023-12-03T14:14:47.217Z,1.00
2023-12-03T14:17:16.711Z,1.00
2023-12-03T14:19:46.078Z,99.90
2023-12-03T14:22:15.382Z,1.00
2023-12-03T14:24:45.784Z,1.00
2023-12-03T14:27:16.565Z,1.00
2023-12-03T14:29:45.842Z,1.00
2023-12-03T14:32:14.995Z,1.00
2023-12-03T14:34:44.259Z,1.00
2023-12-03T14:37:14.153Z,1.00
2023-12-03T14:39:43.928Z,1.00
2023-12-03T14:42:13.211Z,1.00
2023-12-03T14:44:45.692Z,1.00
2023-12-03T14:47:15.301Z,1.00
2023-12-03T14:49:44.789Z,1.00
2023-12-03T14:52:13.953Z,1.00
2023-12-03T14:54:44.526Z,1.00
2023-12-03T14:57:14.183Z,1.00
2023-12-03T14:59:45.204Z,64.60
2023-12-03T15:02:14.728Z,1.00
2023-12-03T15:04:45.164Z,1.00
2023-12-03T15:07:15.472Z,1.00
2023-12-03T15:09:45.904Z,1.00
2023-12-03T15:12:15.614Z,1.00
2023-12-03T15:14:46.929Z,99.90
2023-12-03T15:17:17.290Z,99.90
2023-12-03T15:19:46.695Z,99.90
2023-12-03T15:22:16.731Z,1.00
2023-12-03T15:24:48.808Z,1.00
2023-12-03T15:27:18.358Z,1.00
2023-12-03T15:29:49.495Z,1.00
2023-12-03T15:32:19.363Z,1.00
2023-12-03T15:34:48.965Z,25.20
2023-12-03T15:37:18.622Z,99.90
2023-12-03T15:39:47.738Z,99.90
2023-12-03T15:42:16.904Z,88.40
2023-12-03T15:44:46.249Z,99.90
2023-12-03T15:47:16.911Z,87.60
2023-12-03T15:49:48.332Z,75.30
2023-12-03T15:52:19.481Z,1.00
2023-12-03T15:54:50.106Z,1.00
2023-12-03T15:57:21.460Z,1.00
2023-12-03T15:59:50.854Z,99.90
2023-12-03T16:02:21.727Z,99.90
2023-12-03T16:04:51.787Z,99.90
2023-12-03T16:07:21.760Z,99.90
2023-12-03T16:09:51.358Z,99.90
2023-12-03T16:12:21.026Z,99.90
2023-12-03T16:14:50.704Z,99.90
2023-12-03T16:17:27.716Z,99.90
2023-12-03T16:20:04.174Z,99.90
2023-12-03T16:22:33.731Z,99.90
2023-12-03T16:25:03.821Z,99.90
2023-12-03T16:27:33.978Z,99.90
2023-12-03T16:30:03.711Z,99.90
2023-12-03T16:32:35.167Z,99.90
2023-12-03T16:35:06.197Z,99.90
2023-12-03T16:37:36.132Z,99.90
2023-12-03T16:40:06.086Z,99.90
2023-12-03T16:42:35.712Z,99.90
2023-12-03T16:45:05.507Z,99.90
2023-12-03T16:47:36.406Z,1.00
2023-12-03T16:50:06.110Z,1.00
2023-12-03T16:52:35.838Z,1.00
2023-12-03T16:55:05.875Z,1.00
2023-12-03T16:57:35.636Z,1.00
2023-12-03T17:00:06.287Z,1.00
2023-12-03T17:02:37.445Z,1.00
2023-12-03T17:05:07.872Z,1.00
2023-12-03T17:07:37.853Z,1.00
2023-12-03T17:10:08.315Z,1.00
2023-12-03T17:12:44.736Z,1.00
2023-12-03T17:15:21.342Z,1.00
2023-12-03T17:17:53.704Z,1.00
2023-12-03T17:20:24.197Z,1.00
2023-12-03T17:22:58.811Z,1.00
2023-12-03T17:25:31.366Z,1.00
2023-12-03T17:28:03.266Z,1.00
2023-12-03T17:30:35.359Z,1.00
2023-12-03T17:33:09.582Z,1.00
2023-12-03T17:35:40.714Z,1.00
2023-12-03T17:38:12.504Z,1.00
2023-12-03T17:40:43.442Z,1.00
2023-12-03T17:43:15.088Z,99.90
2023-12-03T17:45:46.852Z,99.90
2023-12-03T17:48:20.819Z,99.90
2023-12-03T17:51:05.566Z,99.90
2023-12-03T17:53:39.633Z,41.30
2023-12-03T17:56:14.077Z,21.90
2023-12-03T17:58:46.555Z,1.00
2023-12-03T18:01:21.842Z,1.00
2023-12-03T18:03:56.841Z,1.00
2023-12-03T18:06:33.656Z,1.00
2023-12-03T18:09:08.702Z,1.00
2023-12-03T18:11:44.716Z,99.90
2023-12-03T18:14:17.806Z,99.90
2023-12-03T18:16:52.244Z,99.90
2023-12-03T18:19:27.534Z,99.90
2023-12-03T18:21:59.749Z,99.90
2023-12-03T18:24:33.193Z,99.90
2023-12-03T18:27:06.289Z,99.90
2023-12-03T18:29:40.319Z,99.90
2023-12-03T18:32:13.055Z,99.90
2023-12-03T18:34:51.467Z,99.90
2023-12-03T18:37:25.631Z,99.90
2023-12-03T18:39:58.457Z,99.90
2023-12-03T18:42:33.326Z,99.90
2023-12-03T18:45:06.558Z,99.90
2023-12-03T18:47:36.947Z,99.90
2023-12-03T18:50:11.616Z,99.90
2023-12-03T18:52:43.962Z,99.90
2023-12-03T18:55:16.181Z,1.00
2023-12-03T18:57:49.328Z,1.00
2023-12-03T19:00:23.872Z,99.90
2023-12-03T19:02:57.945Z,99.90
2023-12-03T19:05:32.598Z,99.90
2023-12-03T19:08:06.674Z,1.00
2023-12-03T19:10:41.736Z,1.00
2023-12-03T19:13:17.191Z,1.00
2023-12-03T19:15:50.919Z,1.00
2023-12-03T19:18:25.401Z,29.40
2023-12-03T19:21:01.847Z,99.90
2023-12-03T19:23:36.259Z,1.00
2023-12-03T19:26:11.080Z,99.90
2023-12-03T19:28:43.909Z,99.90
2023-12-03T19:31:18.379Z,1.00
2023-12-03T19:33:50.891Z,1.00
2023-12-03T19:36:26.839Z,1.00
2023-12-03T19:39:02.445Z,1.00
2023-12-03T19:41:35.217Z,1.00
2023-12-03T19:44:09.333Z,1.00
2023-12-03T19:46:42.381Z,99.90
2023-12-03T19:49:15.861Z,99.90
2023-12-03T19:51:49.879Z,99.90
2023-12-03T19:54:22.383Z,99.90
2023-12-03T19:56:54.447Z,1.00
2023-12-03T19:59:26.975Z,1.00
2023-12-03T20:01:59.410Z,5.40
2023-12-03T20:04:34.423Z,50.80
2023-12-03T20:07:07.604Z,99.90
2023-12-03T20:09:39.392Z,99.90
2023-12-03T20:12:11.780Z,99.90
2023-12-03T20:14:42.911Z,99.90
2023-12-03T20:17:14.800Z,1.00
2023-12-03T20:19:46.714Z,1.00
2023-12-03T20:22:21.902Z,1.00
2023-12-03T20:24:55.900Z,1.00
2023-12-03T20:27:28.306Z,1.00
2023-12-03T20:30:01.682Z,1.00
2023-12-03T20:32:35.364Z,1.00
2023-12-03T20:35:08.939Z,99.90
2023-12-03T20:37:44.208Z,99.90
2023-12-03T20:40:17.322Z,99.90
2023-12-03T20:42:49.372Z,99.90
2023-12-03T20:45:21.438Z,1.00
2023-12-03T20:47:53.526Z,1.00
2023-12-03T20:50:26.099Z,1.00
2023-12-03T20:53:00.298Z,1.00
2023-12-03T20:55:32.149Z,99.90
2023-12-03T20:58:04.033Z,99.90
2023-12-03T21:00:34.674Z,1.00
2023-12-03T21:03:05.105Z,1.00
2023-12-03T21:05:35.461Z,1.00
2023-12-03T21:08:06.860Z,1.00
2023-12-03T21:10:36.764Z,68.20
2023-12-03T21:13:07.552Z,99.90
2023-12-03T21:15:37.627Z,99.90
2023-12-03T21:18:07.474Z,99.90
2023-12-03T21:20:37.520Z,99.90
2023-12-03T21:23:08.480Z,99.90
2023-12-03T21:25:37.888Z,99.90
2023-12-03T21:28:07.596Z,99.90
2023-12-03T21:30:37.202Z,99.90
2023-12-03T21:33:07.104Z,99.90
2023-12-03T21:35:36.430Z,99.90
2023-12-03T21:38:08.423Z,99.90
2023-12-03T21:40:39.595Z,99.90
2023-12-03T21:43:09.276Z,99.90
2023-12-03T21:45:39.473Z,1.00
2023-12-03T21:48:09.411Z,1.00
2023-12-03T21:50:39.060Z,1.00
2023-12-03T21:53:08.334Z,1.00
2023-12-03T21:55:39.109Z,1.00
2023-12-03T21:58:09.206Z,1.00
2023-12-03T22:00:39.366Z,1.00
2023-12-03T22:03:08.724Z,1.00
2023-12-03T22:05:37.915Z,1.00
2023-12-03T22:08:07.674Z,1.00
2023-12-03T22:10:36.898Z,1.00
2023-12-03T22:13:08.906Z,1.00
2023-12-03T22:15:38.529Z,1.00
2023-12-03T22:18:07.716Z,1.00
2023-12-03T22:20:36.907Z,1.00
2023-12-03T22:23:06.039Z,1.00
2023-12-03T22:25:35.340Z,1.00
2023-12-03T22:28:04.790Z,1.00
2023-12-03T22:30:35.658Z,12.50
2023-12-03T22:33:05.437Z,1.00
2023-12-03T22:35:34.608Z,13.90
2023-12-03T22:38:04.338Z,28.10
2023-12-03T22:40:33.348Z,13.10
2023-12-03T22:43:02.662Z,99.90
2023-12-03T22:45:31.818Z,16.10
2023-12-03T22:48:02.466Z,41.10
2023-12-03T22:50:32.135Z,49.70
2023-12-03T22:53:01.456Z,99.90
2023-12-03T22:55:30.780Z,99.90
2023-12-03T22:58:00.677Z,99.90
2023-12-03T23:00:33.929Z,99.90
2023-12-03T23:03:04.805Z,99.90
2023-12-03T23:05:38.534Z,59.40
2023-12-03T23:08:09.215Z,95.00
2023-12-03T23:10:38.407Z,99.90
2023-12-03T23:13:08.295Z,99.90
2023-12-03T23:15:37.384Z,99.90
2023-12-03T23:18:07.908Z,99.90
2023-12-03T23:20:37.007Z,99.90
2023-12-03T23:23:06.151Z,99.90
2023-12-03T23:25:35.852Z,99.90
2023-12-03T23:28:05.252Z,99.90
2023-12-03T23:30:34.618Z,99.90
2023-12-03T23:33:04.156Z,99.90
2023-12-03T23:35:34.732Z,99.90
2023-12-03T23:38:03.869Z,99.90
2023-12-03T23:40:32.999Z,1.00
2023-12-03T23:43:02.122Z,1.00
2023-12-03T23:45:31.594Z,1.00
2023-12-03T23:48:01.115Z,1.00
2023-12-03T23:50:30.352Z,1.00
2023-12-03T23:53:02.168Z,1.00
2023-12-03T23:55:31.296Z,1.00
2023-12-03T23:58:00.712Z,1.00
